sensor_id;sensor_type;location;lat;lon;timestamp;temperature;humidity
5554;DHT22;2800;49.528;8.666;2022-10-16T00:00:31;16.30;99.90
5554;DHT22;2800;49.528;8.666;2022-10-16T00:02:57;16.40;99.90
5554;DHT22;2800;49.528;8.666;2022-10-16T00:05:23;16.40;99.90
5554;DHT22;2800;49.528;8.666;2022-10-16T00:07:48;16.40;99.90
5554;DHT22;2800;49.528;8.666;2022-10-16T00:10:14;16.40;99.90
5554;DHT22;2800;49.528;8.666;2022-10-16T00:12:39;16.30;99.90
5554;DHT22;2800;49.528;8.666;2022-10-16T00:15:05;16.20;99.90
5554;DHT22;2800;49.528;8.666;2022-10-16T00:17:31;16.20;99.90
5554;DHT22;2800;49.528;8.666;2022-10-16T00:19:57;16.10;99.90
5554;DHT22;2800;49.528;8.666;2022-10-16T00:22:22;16.00;99.90
5554;DHT22;2800;49.528;8.666;2022-10-16T00:24:48;16.00;99.90
5554;DHT22;2800;49.528;8.666;2022-10-16T00:27:13;15.90;99.90
5554;DHT22;2800;49.528;8.666;2022-10-16T00:29:39;15.90;99.90
5554;DHT22;2800;49.528;8.666;2022-10-16T00:32:05;15.90;99.90
5554;DHT22;2800;49.528;8.666;2022-10-16T00:34:30;15.80;99.90
5554;DHT22;2800;49.528;8.666;2022-10-16T00:36:56;15.90;99.90
5554;DHT22;2800;49.528;8.666;2022-10-16T00:39:21;15.90;99.90
5554;DHT22;2800;49.528;8.666;2022-10-16T00:41:47;15.90;99.90
5554;DHT22;2800;49.528;8.666;2022-10-16T00:47:09;16.00;99.90
5554;DHT22;2800;49.528;8.666;2022-10-16T00:49:35;16.10;99.90
5554;DHT22;2800;49.528;8.666;2022-10-16T00:52:00;16.10;99.90
5554;DHT22;2800;49.528;8.666;2022-10-16T00:54:28;16.20;99.90
5554;DHT22;2800;49.528;8.666;2022-10-16T00:56:55;16.30;99.90
5554;DHT22;2800;49.528;8.666;2022-10-16T00:59:28;16.30;99.90
5554;DHT22;2800;49.528;8.666;2022-10-16T01:01:54;16.30;99.90
5554;DHT22;2800;49.528;8.666;2022-10-16T01:04:21;16.40;99.90
5554;DHT22;2800;49.528;8.666;2022-10-16T01:12:23;16.40;99.90
5554;DHT22;2800;49.528;8.666;2022-10-16T01:17:43;16.30;99.90
5554;DHT22;2800;49.528;8.666;2022-10-16T01:20:32;16.30;99.90
5554;DHT22;2800;49.528;8.666;2022-10-16T01:28:41;17.00;99.90
5554;DHT22;2800;49.528;8.666;2022-10-16T01:31:11;16.40;99.90
5554;DHT22;2800;49.528;8.666;2022-10-16T01:33:45;16.40;99.90
5554;DHT22;2800;49.528;8.666;2022-10-16T01:36:29;16.40;99.90
5554;DHT22;2800;49.528;8.666;2022-10-16T01:39:00;16.40;99.90
5554;DHT22;2800;49.528;8.666;2022-10-16T01:41:36;16.40;99.90
5554;DHT22;2800;49.528;8.666;2022-10-16T01:44:38;16.40;99.90
5554;DHT22;2800;49.528;8.666;2022-10-16T01:47:08;16.40;99.90
5554;DHT22;2800;49.528;8.666;2022-10-16T01:49:36;16.50;99.90
5554;DHT22;2800;49.528;8.666;2022-10-16T01:52:06;17.10;99.90
5554;DHT22;2800;49.528;8.666;2022-10-16T01:54:35;16.40;99.90
5554;DHT22;2800;49.528;8.666;2022-10-16T01:57:04;16.40;99.90
5554;DHT22;2800;49.528;8.666;2022-10-16T01:59:32;16.40;99.90
5554;DHT22;2800;49.528;8.666;2022-10-16T02:02:03;16.40;99.90
5554;DHT22;2800;49.528;8.666;2022-10-16T02:04:34;16.30;99.90
5554;DHT22;2800;49.528;8.666;2022-10-16T02:07:01;16.30;99.90
5554;DHT22;2800;49.528;8.666;2022-10-16T02:09:27;16.30;99.90
5554;DHT22;2800;49.528;8.666;2022-10-16T02:11:54;16.30;99.90
5554;DHT22;2800;49.528;8.666;2022-10-16T02:14:21;16.30;99.90
5554;DHT22;2800;49.528;8.666;2022-10-16T02:16:50;16.30;99.90
5554;DHT22;2800;49.528;8.666;2022-10-16T02:19:17;16.30;99.90
5554;DHT22;2800;49.528;8.666;2022-10-16T02:21:56;16.30;99.90
5554;DHT22;2800;49.528;8.666;2022-10-16T02:24:54;16.30;99.90
5554;DHT22;2800;49.528;8.666;2022-10-16T02:32:47;16.30;99.90
5554;DHT22;2800;49.528;8.666;2022-10-16T02:35:15;16.30;99.90
5554;DHT22;2800;49.528;8.666;2022-10-16T02:37:42;16.30;99.90
5554;DHT22;2800;49.528;8.666;2022-10-16T02:40:08;16.30;99.90
5554;DHT22;2800;49.528;8.666;2022-10-16T02:42:36;16.40;99.90
5554;DHT22;2800;49.528;8.666;2022-10-16T02:45:03;16.30;99.90
5554;DHT22;2800;49.528;8.666;2022-10-16T02:47:29;16.40;99.90
5554;DHT22;2800;49.528;8.666;2022-10-16T02:49:54;16.50;99.90
5554;DHT22;2800;49.528;8.666;2022-10-16T02:52:20;16.40;99.90
5554;DHT22;2800;49.528;8.666;2022-10-16T02:54:46;16.30;99.90
5554;DHT22;2800;49.528;8.666;2022-10-16T02:57:11;16.30;99.90
5554;DHT22;2800;49.528;8.666;2022-10-16T02:59:37;16.20;99.90
5554;DHT22;2800;49.528;8.666;2022-10-16T03:02:03;16.20;99.90
5554;DHT22;2800;49.528;8.666;2022-10-16T03:04:28;16.20;99.90
5554;DHT22;2800;49.528;8.666;2022-10-16T03:06:54;16.20;99.90
5554;DHT22;2800;49.528;8.666;2022-10-16T03:09:19;16.20;99.90
5554;DHT22;2800;49.528;8.666;2022-10-16T03:11:45;16.20;99.90
5554;DHT22;2800;49.528;8.666;2022-10-16T03:14:10;16.20;99.90
5554;DHT22;2800;49.528;8.666;2022-10-16T03:16:36;16.20;99.90
5554;DHT22;2800;49.528;8.666;2022-10-16T03:19:01;16.20;99.90
5554;DHT22;2800;49.528;8.666;2022-10-16T03:21:27;16.20;99.90
5554;DHT22;2800;49.528;8.666;2022-10-16T03:23:52;16.20;99.90
5554;DHT22;2800;49.528;8.666;2022-10-16T03:26:17;16.20;99.90
5554;DHT22;2800;49.528;8.666;2022-10-16T03:28:43;16.20;99.90
5554;DHT22;2800;49.528;8.666;2022-10-16T03:31:08;16.20;99.90
5554;DHT22;2800;49.528;8.666;2022-10-16T03:33:34;16.20;99.90
5554;DHT22;2800;49.528;8.666;2022-10-16T03:35:59;16.20;99.90
5554;DHT22;2800;49.528;8.666;2022-10-16T03:38:25;16.20;99.90
5554;DHT22;2800;49.528;8.666;2022-10-16T03:40:51;16.30;99.90
5554;DHT22;2800;49.528;8.666;2022-10-16T03:43:16;16.30;99.90
5554;DHT22;2800;49.528;8.666;2022-10-16T03:45:42;16.30;99.90
5554;DHT22;2800;49.528;8.666;2022-10-16T03:48:07;16.30;99.90
5554;DHT22;2800;49.528;8.666;2022-10-16T03:50:33;16.20;99.90
5554;DHT22;2800;49.528;8.666;2022-10-16T03:52:58;16.20;99.90
5554;DHT22;2800;49.528;8.666;2022-10-16T03:55:24;16.30;99.90
5554;DHT22;2800;49.528;8.666;2022-10-16T03:57:49;16.40;99.90
5554;DHT22;2800;49.528;8.666;2022-10-16T04:00:15;16.40;99.90
5554;DHT22;2800;49.528;8.666;2022-10-16T04:02:40;16.40;99.90
5554;DHT22;2800;49.528;8.666;2022-10-16T04:05:06;16.40;99.90
5554;DHT22;2800;49.528;8.666;2022-10-16T04:07:32;16.40;99.90
5554;DHT22;2800;49.528;8.666;2022-10-16T04:09:57;16.40;99.90
5554;DHT22;2800;49.528;8.666;2022-10-16T04:12:25;16.40;99.90
5554;DHT22;2800;49.528;8.666;2022-10-16T04:14:50;16.50;99.90
5554;DHT22;2800;49.528;8.666;2022-10-16T04:17:16;16.50;99.90
5554;DHT22;2800;49.528;8.666;2022-10-16T04:19:41;16.40;99.90
5554;DHT22;2800;49.528;8.666;2022-10-16T04:22:07;16.40;99.90
5554;DHT22;2800;49.528;8.666;2022-10-16T04:24:33;16.40;99.90
5554;DHT22;2800;49.528;8.666;2022-10-16T04:26:58;16.40;99.90
5554;DHT22;2800;49.528;8.666;2022-10-16T04:29:24;16.40;99.90
5554;DHT22;2800;49.528;8.666;2022-10-16T04:31:49;16.40;99.90
5554;DHT22;2800;49.528;8.666;2022-10-16T04:34:15;16.40;99.90
5554;DHT22;2800;49.528;8.666;2022-10-16T04:36:40;16.40;99.90
5554;DHT22;2800;49.528;8.666;2022-10-16T04:39:06;16.40;99.90
5554;DHT22;2800;49.528;8.666;2022-10-16T04:41:31;16.40;99.90
5554;DHT22;2800;49.528;8.666;2022-10-16T04:43:57;16.40;99.90
5554;DHT22;2800;49.528;8.666;2022-10-16T04:46:23;16.30;99.90
5554;DHT22;2800;49.528;8.666;2022-10-16T04:48:48;16.40;99.90
5554;DHT22;2800;49.528;8.666;2022-10-16T04:51:14;16.50;99.90
5554;DHT22;2800;49.528;8.666;2022-10-16T04:53:39;16.60;99.90
5554;DHT22;2800;49.528;8.666;2022-10-16T04:56:05;16.60;99.90
5554;DHT22;2800;49.528;8.666;2022-10-16T04:58:30;16.60;99.90
5554;DHT22;2800;49.528;8.666;2022-10-16T05:00:56;16.70;99.90
5554;DHT22;2800;49.528;8.666;2022-10-16T05:03:21;16.70;99.90
5554;DHT22;2800;49.528;8.666;2022-10-16T05:05:47;16.20;99.90
5554;DHT22;2800;49.528;8.666;2022-10-16T05:08:14;16.80;99.90
5554;DHT22;2800;49.528;8.666;2022-10-16T05:10:43;16.80;99.90
5554;DHT22;2800;49.528;8.666;2022-10-16T05:13:09;16.70;99.90
5554;DHT22;2800;49.528;8.666;2022-10-16T05:15:35;16.60;99.90
5554;DHT22;2800;49.528;8.666;2022-10-16T05:18:00;16.70;99.90
5554;DHT22;2800;49.528;8.666;2022-10-16T05:20:26;16.70;99.90
5554;DHT22;2800;49.528;8.666;2022-10-16T05:22:51;16.70;99.90
5554;DHT22;2800;49.528;8.666;2022-10-16T05:25:17;16.70;99.90
5554;DHT22;2800;49.528;8.666;2022-10-16T05:27:42;16.70;99.90
5554;DHT22;2800;49.528;8.666;2022-10-16T05:30:08;16.70;99.90
5554;DHT22;2800;49.528;8.666;2022-10-16T05:32:34;16.70;99.90
5554;DHT22;2800;49.528;8.666;2022-10-16T05:34:59;16.70;99.90
5554;DHT22;2800;49.528;8.666;2022-10-16T05:37:27;16.70;99.90
5554;DHT22;2800;49.528;8.666;2022-10-16T05:39:52;16.80;99.90
5554;DHT22;2800;49.528;8.666;2022-10-16T05:42:18;16.80;99.90
5554;DHT22;2800;49.528;8.666;2022-10-16T05:44:44;16.80;99.90
5554;DHT22;2800;49.528;8.666;2022-10-16T05:47:10;16.90;99.90
5554;DHT22;2800;49.528;8.666;2022-10-16T05:49:37;16.90;99.90
5554;DHT22;2800;49.528;8.666;2022-10-16T05:52:02;17.00;99.90
5554;DHT22;2800;49.528;8.666;2022-10-16T05:54:28;16.90;99.90
5554;DHT22;2800;49.528;8.666;2022-10-16T05:56:53;16.80;99.90
5554;DHT22;2800;49.528;8.666;2022-10-16T05:59:19;16.80;99.90
5554;DHT22;2800;49.528;8.666;2022-10-16T06:01:44;17.00;99.90
5554;DHT22;2800;49.528;8.666;2022-10-16T06:04:10;17.00;99.90
5554;DHT22;2800;49.528;8.666;2022-10-16T06:06:36;17.10;99.90
5554;DHT22;2800;49.528;8.666;2022-10-16T06:09:02;17.20;99.90
5554;DHT22;2800;49.528;8.666;2022-10-16T06:11:30;17.20;99.90
5554;DHT22;2800;49.528;8.666;2022-10-16T06:13:57;17.20;99.90
5554;DHT22;2800;49.528;8.666;2022-10-16T06:16:24;17.10;99.90
5554;DHT22;2800;49.528;8.666;2022-10-16T06:18:52;16.90;99.90
5554;DHT22;2800;49.528;8.666;2022-10-16T06:21:22;16.90;99.90
5554;DHT22;2800;49.528;8.666;2022-10-16T06:23:51;16.90;99.90
5554;DHT22;2800;49.528;8.666;2022-10-16T06:26:19;16.80;99.90
5554;DHT22;2800;49.528;8.666;2022-10-16T06:28:46;16.90;99.90
5554;DHT22;2800;49.528;8.666;2022-10-16T06:31:12;16.90;99.90
5554;DHT22;2800;49.528;8.666;2022-10-16T06:33:39;16.80;99.90
5554;DHT22;2800;49.528;8.666;2022-10-16T06:36:15;16.80;99.90
5554;DHT22;2800;49.528;8.666;2022-10-16T06:38:42;16.80;99.90
5554;DHT22;2800;49.528;8.666;2022-10-16T06:41:11;16.90;99.90
5554;DHT22;2800;49.528;8.666;2022-10-16T06:43:37;16.80;99.90
5554;DHT22;2800;49.528;8.666;2022-10-16T06:46:05;16.90;99.90
5554;DHT22;2800;49.528;8.666;2022-10-16T06:48:31;16.90;99.90
5554;DHT22;2800;49.528;8.666;2022-10-16T06:51:02;16.90;99.90
5554;DHT22;2800;49.528;8.666;2022-10-16T06:53:30;16.90;99.90
5554;DHT22;2800;49.528;8.666;2022-10-16T06:55:56;16.90;99.90
5554;DHT22;2800;49.528;8.666;2022-10-16T06:58:21;16.90;99.90
5554;DHT22;2800;49.528;8.666;2022-10-16T07:00:47;16.90;99.90
5554;DHT22;2800;49.528;8.666;2022-10-16T07:03:13;16.90;99.90
5554;DHT22;2800;49.528;8.666;2022-10-16T07:05:40;16.90;99.90
5554;DHT22;2800;49.528;8.666;2022-10-16T07:08:06;16.80;99.90
5554;DHT22;2800;49.528;8.666;2022-10-16T07:10:32;16.70;99.90
5554;DHT22;2800;49.528;8.666;2022-10-16T07:12:58;16.60;99.90
5554;DHT22;2800;49.528;8.666;2022-10-16T07:15:25;16.50;99.90
5554;DHT22;2800;49.528;8.666;2022-10-16T07:17:50;16.50;99.90
5554;DHT22;2800;49.528;8.666;2022-10-16T07:20:16;16.50;99.90
5554;DHT22;2800;49.528;8.666;2022-10-16T07:22:41;16.50;99.90
5554;DHT22;2800;49.528;8.666;2022-10-16T07:25:07;16.60;99.90
5554;DHT22;2800;49.528;8.666;2022-10-16T07:27:33;16.60;99.90
5554;DHT22;2800;49.528;8.666;2022-10-16T07:29:58;16.70;99.90
5554;DHT22;2800;49.528;8.666;2022-10-16T07:32:24;16.80;99.90
5554;DHT22;2800;49.528;8.666;2022-10-16T07:34:51;16.90;99.90
5554;DHT22;2800;49.528;8.666;2022-10-16T07:37:17;17.00;99.90
5554;DHT22;2800;49.528;8.666;2022-10-16T07:39:42;17.10;99.90
5554;DHT22;2800;49.528;8.666;2022-10-16T07:42:08;17.20;99.90
5554;DHT22;2800;49.528;8.666;2022-10-16T07:44:33;17.30;99.90
5554;DHT22;2800;49.528;8.666;2022-10-16T07:46:59;17.40;99.90
5554;DHT22;2800;49.528;8.666;2022-10-16T07:49:24;17.50;99.90
5554;DHT22;2800;49.528;8.666;2022-10-16T07:51:50;17.50;99.90
5554;DHT22;2800;49.528;8.666;2022-10-16T07:54:15;17.50;99.90
5554;DHT22;2800;49.528;8.666;2022-10-16T07:56:41;17.50;99.90
5554;DHT22;2800;49.528;8.666;2022-10-16T07:59:07;17.50;99.90
5554;DHT22;2800;49.528;8.666;2022-10-16T08:01:32;17.50;99.90
5554;DHT22;2800;49.528;8.666;2022-10-16T08:03:58;17.60;99.90
5554;DHT22;2800;49.528;8.666;2022-10-16T08:06:23;17.60;99.90
5554;DHT22;2800;49.528;8.666;2022-10-16T08:08:49;17.70;99.90
5554;DHT22;2800;49.528;8.666;2022-10-16T08:11:15;17.70;99.90
5554;DHT22;2800;49.528;8.666;2022-10-16T08:13:41;17.70;99.90
5554;DHT22;2800;49.528;8.666;2022-10-16T08:16:07;17.70;99.90
5554;DHT22;2800;49.528;8.666;2022-10-16T08:18:38;17.70;99.90
5554;DHT22;2800;49.528;8.666;2022-10-16T08:21:05;17.60;99.90
5554;DHT22;2800;49.528;8.666;2022-10-16T08:23:32;17.60;99.90
5554;DHT22;2800;49.528;8.666;2022-10-16T08:26:05;17.50;99.90
5554;DHT22;2800;49.528;8.666;2022-10-16T08:28:32;17.40;99.90
5554;DHT22;2800;49.528;8.666;2022-10-16T08:31:05;17.40;99.90
5554;DHT22;2800;49.528;8.666;2022-10-16T08:33:31;17.50;99.90
5554;DHT22;2800;49.528;8.666;2022-10-16T08:35:56;17.50;99.90
5554;DHT22;2800;49.528;8.666;2022-10-16T08:38:22;17.60;99.90
5554;DHT22;2800;49.528;8.666;2022-10-16T08:40:47;17.70;99.90
5554;DHT22;2800;49.528;8.666;2022-10-16T08:48:49;17.80;99.90
5554;DHT22;2800;49.528;8.666;2022-10-16T08:51:27;17.80;99.90
5554;DHT22;2800;49.528;8.666;2022-10-16T08:56:50;17.70;99.90
5554;DHT22;2800;49.528;8.666;2022-10-16T08:59:16;17.70;99.90
5554;DHT22;2800;49.528;8.666;2022-10-16T09:01:45;17.60;99.90
5554;DHT22;2800;49.528;8.666;2022-10-16T09:08:09;17.20;99.90
5554;DHT22;2800;49.528;8.666;2022-10-16T09:16:31;16.40;99.90
5554;DHT22;2800;49.528;8.666;2022-10-16T09:21:40;16.20;99.90
5554;DHT22;2800;49.528;8.666;2022-10-16T09:24:26;16.30;99.90
5554;DHT22;2800;49.528;8.666;2022-10-16T09:26:52;16.80;99.90
5554;DHT22;2800;49.528;8.666;2022-10-16T09:29:18;16.80;99.90
5554;DHT22;2800;49.528;8.666;2022-10-16T09:31:50;16.80;99.90
5554;DHT22;2800;49.528;8.666;2022-10-16T09:34:35;17.60;99.90
5554;DHT22;2800;49.528;8.666;2022-10-16T09:37:05;16.90;99.90
5554;DHT22;2800;49.528;8.666;2022-10-16T09:39:44;17.00;99.90
5554;DHT22;2800;49.528;8.666;2022-10-16T09:42:17;17.30;99.90
5554;DHT22;2800;49.528;8.666;2022-10-16T09:44:48;17.50;99.90
5554;DHT22;2800;49.528;8.666;2022-10-16T09:47:25;17.80;99.90
5554;DHT22;2800;49.528;8.666;2022-10-16T09:50:02;18.00;99.90
5554;DHT22;2800;49.528;8.666;2022-10-16T09:52:30;18.50;99.90
5554;DHT22;2800;49.528;8.666;2022-10-16T09:54:57;18.50;99.90
5554;DHT22;2800;49.528;8.666;2022-10-16T09:57:25;18.70;99.90
5554;DHT22;2800;49.528;8.666;2022-10-16T09:59:52;18.70;99.90
5554;DHT22;2800;49.528;8.666;2022-10-16T10:02:29;18.80;99.90
5554;DHT22;2800;49.528;8.666;2022-10-16T10:04:55;18.90;99.90
5554;DHT22;2800;49.528;8.666;2022-10-16T10:07:25;19.00;99.90
5554;DHT22;2800;49.528;8.666;2022-10-16T10:09:52;19.20;99.90
5554;DHT22;2800;49.528;8.666;2022-10-16T10:12:28;19.20;99.90
5554;DHT22;2800;49.528;8.666;2022-10-16T10:14:56;19.10;99.90
5554;DHT22;2800;49.528;8.666;2022-10-16T10:17:27;19.00;99.90
5554;DHT22;2800;49.528;8.666;2022-10-16T10:20:13;19.00;99.90
5554;DHT22;2800;49.528;8.666;2022-10-16T10:22:44;19.00;99.90
5554;DHT22;2800;49.528;8.666;2022-10-16T10:31:01;20.20;99.90
5554;DHT22;2800;49.528;8.666;2022-10-16T10:38:49;20.90;99.90
5554;DHT22;2800;49.528;8.666;2022-10-16T10:41:22;21.00;99.90
5554;DHT22;2800;49.528;8.666;2022-10-16T10:44:11;20.80;99.90
5554;DHT22;2800;49.528;8.666;2022-10-16T10:49:54;21.00;99.90
5554;DHT22;2800;49.528;8.666;2022-10-16T10:58:29;22.00;99.90
5554;DHT22;2800;49.528;8.666;2022-10-16T11:01:14;22.50;99.90
5554;DHT22;2800;49.528;8.666;2022-10-16T11:04:03;23.40;99.90
5554;DHT22;2800;49.528;8.666;2022-10-16T11:06:45;23.60;99.90
5554;DHT22;2800;49.528;8.666;2022-10-16T11:09:40;23.90;99.90
5554;DHT22;2800;49.528;8.666;2022-10-16T11:12:17;24.20;99.90
5554;DHT22;2800;49.528;8.666;2022-10-16T11:15:17;24.80;99.90
5554;DHT22;2800;49.528;8.666;2022-10-16T11:17:46;24.90;99.90
5554;DHT22;2800;49.528;8.666;2022-10-16T11:20:26;25.20;99.90
5554;DHT22;2800;49.528;8.666;2022-10-16T11:25:31;24.60;99.90
5554;DHT22;2800;49.528;8.666;2022-10-16T11:28:11;24.90;99.90
5554;DHT22;2800;49.528;8.666;2022-10-16T11:36:19;24.30;99.90
5554;DHT22;2800;49.528;8.666;2022-10-16T11:38:53;24.40;99.90
5554;DHT22;2800;49.528;8.666;2022-10-16T11:41:29;25.00;99.90
5554;DHT22;2800;49.528;8.666;2022-10-16T11:44:18;24.90;99.90
5554;DHT22;2800;49.528;8.666;2022-10-16T11:47:10;25.20;99.90
5554;DHT22;2800;49.528;8.666;2022-10-16T11:49:38;25.50;99.90
5554;DHT22;2800;49.528;8.666;2022-10-16T11:52:16;25.90;99.90
5554;DHT22;2800;49.528;8.666;2022-10-16T11:54:57;25.60;99.90
5554;DHT22;2800;49.528;8.666;2022-10-16T11:57:28;25.40;99.90
5554;DHT22;2800;49.528;8.666;2022-10-16T12:00:10;26.30;99.90
5554;DHT22;2800;49.528;8.666;2022-10-16T12:03:03;25.80;99.90
5554;DHT22;2800;49.528;8.666;2022-10-16T12:08:16;23.70;99.90
5554;DHT22;2800;49.528;8.666;2022-10-16T12:10:44;23.20;99.90
5554;DHT22;2800;49.528;8.666;2022-10-16T12:13:33;22.90;99.90
5554;DHT22;2800;49.528;8.666;2022-10-16T12:18:31;22.60;99.90
5554;DHT22;2800;49.528;8.666;2022-10-16T12:20:58;22.90;99.90
5554;DHT22;2800;49.528;8.666;2022-10-16T12:23:25;22.70;99.90
5554;DHT22;2800;49.528;8.666;2022-10-16T12:25:58;22.40;99.90
5554;DHT22;2800;49.528;8.666;2022-10-16T12:28:31;22.00;99.90
5554;DHT22;2800;49.528;8.666;2022-10-16T12:31:06;22.00;99.90
5554;DHT22;2800;49.528;8.666;2022-10-16T12:33:39;21.90;99.90
5554;DHT22;2800;49.528;8.666;2022-10-16T12:36:13;21.90;99.90
5554;DHT22;2800;49.528;8.666;2022-10-16T12:38:51;21.80;99.90
5554;DHT22;2800;49.528;8.666;2022-10-16T12:43:54;21.80;99.90
5554;DHT22;2800;49.528;8.666;2022-10-16T12:46:35;21.80;99.90
5554;DHT22;2800;49.528;8.666;2022-10-16T12:49:36;21.80;99.90
5554;DHT22;2800;49.528;8.666;2022-10-16T12:52:03;21.70;99.90
5554;DHT22;2800;49.528;8.666;2022-10-16T12:54:37;21.50;99.90
5554;DHT22;2800;49.528;8.666;2022-10-16T13:00:19;21.80;99.90
5554;DHT22;2800;49.528;8.666;2022-10-16T13:03:00;22.10;99.90
5554;DHT22;2800;49.528;8.666;2022-10-16T13:05:34;22.10;99.90
5554;DHT22;2800;49.528;8.666;2022-10-16T13:10:59;21.90;99.90
5554;DHT22;2800;49.528;8.666;2022-10-16T13:19:52;22.30;99.90
5554;DHT22;2800;49.528;8.666;2022-10-16T13:22:47;22.30;99.90
5554;DHT22;2800;49.528;8.666;2022-10-16T13:25:40;22.20;99.90
5554;DHT22;2800;49.528;8.666;2022-10-16T13:28:10;21.90;99.90
5554;DHT22;2800;49.528;8.666;2022-10-16T13:30:53;21.50;99.90
5554;DHT22;2800;49.528;8.666;2022-10-16T13:35:49;21.10;99.90
5554;DHT22;2800;49.528;8.666;2022-10-16T13:38:21;21.10;99.90
5554;DHT22;2800;49.528;8.666;2022-10-16T13:43:58;20.90;99.90
5554;DHT22;2800;49.528;8.666;2022-10-16T13:46:25;20.70;99.90
5554;DHT22;2800;49.528;8.666;2022-10-16T13:49:10;20.50;99.90
5554;DHT22;2800;49.528;8.666;2022-10-16T13:51:36;20.30;99.90
5554;DHT22;2800;49.528;8.666;2022-10-16T13:54:02;20.20;99.90
5554;DHT22;2800;49.528;8.666;2022-10-16T13:56:30;20.10;99.90
5554;DHT22;2800;49.528;8.666;2022-10-16T13:59:02;20.00;99.90
5554;DHT22;2800;49.528;8.666;2022-10-16T14:01:50;20.00;99.90
5554;DHT22;2800;49.528;8.666;2022-10-16T14:04:15;20.10;99.90
5554;DHT22;2800;49.528;8.666;2022-10-16T14:06:44;20.20;99.90
5554;DHT22;2800;49.528;8.666;2022-10-16T14:09:26;20.30;99.90
5554;DHT22;2800;49.528;8.666;2022-10-16T14:11:55;20.40;99.90
5554;DHT22;2800;49.528;8.666;2022-10-16T14:14:22;20.50;99.90
5554;DHT22;2800;49.528;8.666;2022-10-16T14:16:48;20.40;99.90
5554;DHT22;2800;49.528;8.666;2022-10-16T14:19:23;20.30;99.90
5554;DHT22;2800;49.528;8.666;2022-10-16T14:21:51;20.10;99.90
5554;DHT22;2800;49.528;8.666;2022-10-16T14:24:33;20.00;99.90
5554;DHT22;2800;49.528;8.666;2022-10-16T14:27:00;19.80;99.90
5554;DHT22;2800;49.528;8.666;2022-10-16T14:29:28;19.70;99.90
5554;DHT22;2800;49.528;8.666;2022-10-16T14:32:05;19.80;99.90
5554;DHT22;2800;49.528;8.666;2022-10-16T14:34:33;19.60;99.90
5554;DHT22;2800;49.528;8.666;2022-10-16T14:37:01;19.40;99.90
5554;DHT22;2800;49.528;8.666;2022-10-16T14:39:32;19.20;99.90
5554;DHT22;2800;49.528;8.666;2022-10-16T14:41:58;19.10;99.90
5554;DHT22;2800;49.528;8.666;2022-10-16T14:44:29;19.00;99.90
5554;DHT22;2800;49.528;8.666;2022-10-16T14:46:56;19.10;99.90
5554;DHT22;2800;49.528;8.666;2022-10-16T14:49:23;19.10;99.90
5554;DHT22;2800;49.528;8.666;2022-10-16T14:51:49;19.10;99.90
5554;DHT22;2800;49.528;8.666;2022-10-16T14:54:17;19.10;99.90
5554;DHT22;2800;49.528;8.666;2022-10-16T14:56:45;19.20;99.90
5554;DHT22;2800;49.528;8.666;2022-10-16T14:59:33;19.20;99.90
5554;DHT22;2800;49.528;8.666;2022-10-16T15:04:45;19.20;99.90
5554;DHT22;2800;49.528;8.666;2022-10-16T15:07:11;19.10;99.90
5554;DHT22;2800;49.528;8.666;2022-10-16T15:09:36;19.00;99.90
5554;DHT22;2800;49.528;8.666;2022-10-16T15:12:02;19.00;99.90
5554;DHT22;2800;49.528;8.666;2022-10-16T15:14:27;19.10;99.90
5554;DHT22;2800;49.528;8.666;2022-10-16T15:16:53;19.40;99.90
5554;DHT22;2800;49.528;8.666;2022-10-16T15:19:18;19.60;99.90
5554;DHT22;2800;49.528;8.666;2022-10-16T15:21:44;19.90;99.90
5554;DHT22;2800;49.528;8.666;2022-10-16T15:24:12;20.00;99.90
5554;DHT22;2800;49.528;8.666;2022-10-16T15:26:38;20.00;99.90
5554;DHT22;2800;49.528;8.666;2022-10-16T15:29:04;20.00;99.90
5554;DHT22;2800;49.528;8.666;2022-10-16T15:31:30;19.90;99.90
5554;DHT22;2800;49.528;8.666;2022-10-16T15:33:56;19.90;99.90
5554;DHT22;2800;49.528;8.666;2022-10-16T15:36:32;19.80;99.90
5554;DHT22;2800;49.528;8.666;2022-10-16T15:38:59;19.70;99.90
5554;DHT22;2800;49.528;8.666;2022-10-16T15:41:25;19.50;99.90
5554;DHT22;2800;49.528;8.666;2022-10-16T15:43:51;19.40;99.90
5554;DHT22;2800;49.528;8.666;2022-10-16T15:46:21;19.50;99.90
5554;DHT22;2800;49.528;8.666;2022-10-16T15:48:51;19.40;99.90
5554;DHT22;2800;49.528;8.666;2022-10-16T15:51:21;19.50;99.90
5554;DHT22;2800;49.528;8.666;2022-10-16T15:53:46;19.80;99.90
5554;DHT22;2800;49.528;8.666;2022-10-16T15:56:12;19.80;99.90
5554;DHT22;2800;49.528;8.666;2022-10-16T15:58:38;19.80;99.90
5554;DHT22;2800;49.528;8.666;2022-10-16T16:01:04;19.90;99.90
5554;DHT22;2800;49.528;8.666;2022-10-16T16:03:31;19.90;99.90
5554;DHT22;2800;49.528;8.666;2022-10-16T16:05:57;19.60;99.90
5554;DHT22;2800;49.528;8.666;2022-10-16T16:08:22;19.40;99.90
5554;DHT22;2800;49.528;8.666;2022-10-16T16:10:59;19.00;99.90
5554;DHT22;2800;49.528;8.666;2022-10-16T16:13:24;18.70;99.90
5554;DHT22;2800;49.528;8.666;2022-10-16T16:15:50;18.60;99.90
5554;DHT22;2800;49.528;8.666;2022-10-16T16:18:15;18.50;99.90
5554;DHT22;2800;49.528;8.666;2022-10-16T16:20:41;18.50;99.90
5554;DHT22;2800;49.528;8.666;2022-10-16T16:23:06;18.30;99.90
5554;DHT22;2800;49.528;8.666;2022-10-16T16:25:32;18.10;99.90
5554;DHT22;2800;49.528;8.666;2022-10-16T16:27:57;18.00;99.90
5554;DHT22;2800;49.528;8.666;2022-10-16T16:30:23;17.90;99.90
5554;DHT22;2800;49.528;8.666;2022-10-16T16:32:48;17.70;99.90
5554;DHT22;2800;49.528;8.666;2022-10-16T16:35:14;17.70;99.90
5554;DHT22;2800;49.528;8.666;2022-10-16T16:37:39;17.50;99.90
5554;DHT22;2800;49.528;8.666;2022-10-16T16:40:05;17.50;99.90
5554;DHT22;2800;49.528;8.666;2022-10-16T16:42:30;17.50;99.90
5554;DHT22;2800;49.528;8.666;2022-10-16T16:44:56;17.40;99.90
5554;DHT22;2800;49.528;8.666;2022-10-16T16:47:22;17.30;99.90
5554;DHT22;2800;49.528;8.666;2022-10-16T16:49:47;17.10;99.90
5554;DHT22;2800;49.528;8.666;2022-10-16T16:52:13;17.10;99.90
5554;DHT22;2800;49.528;8.666;2022-10-16T16:54:39;17.20;99.90
5554;DHT22;2800;49.528;8.666;2022-10-16T16:57:05;17.10;99.90
5554;DHT22;2800;49.528;8.666;2022-10-16T16:59:30;17.20;99.90
5554;DHT22;2800;49.528;8.666;2022-10-16T17:01:59;17.10;99.90
5554;DHT22;2800;49.528;8.666;2022-10-16T17:04:25;17.20;99.90
5554;DHT22;2800;49.528;8.666;2022-10-16T17:06:53;17.20;99.90
5554;DHT22;2800;49.528;8.666;2022-10-16T17:09:19;17.20;99.90
5554;DHT22;2800;49.528;8.666;2022-10-16T17:11:45;17.30;99.90
5554;DHT22;2800;49.528;8.666;2022-10-16T17:14:11;17.20;99.90
5554;DHT22;2800;49.528;8.666;2022-10-16T17:16:38;17.40;99.90
5554;DHT22;2800;49.528;8.666;2022-10-16T17:19:06;17.30;99.90
5554;DHT22;2800;49.528;8.666;2022-10-16T17:21:33;17.30;99.90
5554;DHT22;2800;49.528;8.666;2022-10-16T17:23:58;17.40;99.90
5554;DHT22;2800;49.528;8.666;2022-10-16T17:26:25;17.40;99.90
5554;DHT22;2800;49.528;8.666;2022-10-16T17:28:56;17.30;99.90
5554;DHT22;2800;49.528;8.666;2022-10-16T17:31:26;17.40;99.90
5554;DHT22;2800;49.528;8.666;2022-10-16T17:33:52;17.60;99.90
5554;DHT22;2800;49.528;8.666;2022-10-16T17:36:19;17.90;99.90
5554;DHT22;2800;49.528;8.666;2022-10-16T17:38:44;17.50;99.90
5554;DHT22;2800;49.528;8.666;2022-10-16T17:41:22;17.70;99.90
5554;DHT22;2800;49.528;8.666;2022-10-16T17:43:49;17.80;99.90
5554;DHT22;2800;49.528;8.666;2022-10-16T17:46:16;17.80;99.90
5554;DHT22;2800;49.528;8.666;2022-10-16T17:48:44;17.80;99.90
5554;DHT22;2800;49.528;8.666;2022-10-16T17:51:16;17.80;99.90
5554;DHT22;2800;49.528;8.666;2022-10-16T17:53:42;17.70;99.90